Conotton, Ohio
Current Conditions -  °F | °C
As of 3:53 PM on Sunday 23 Nov 2014 (Local Time) from KPHD Reporting Station
Clear Clear  
Wind Chill: 63°   Ceiling: Unl
Heat Index: 63°   Visibility: 10mi
Dew Point: 43°   Wind: 7mph
Humidity: 48%   Direction: 120°ESE
Pressure: 29.79"   Gusts: NA
Location:  40.4357°N, 81.1746°W
Report Text: KPHD 232053Z AUTO 12006KT 10SM CLR 17/06 A2979 RMK AO2 SLP088 T01720061 56047
Loading
Personal Weather Stations






























Interactive Weather Map New forecast layout! Learn more

10-Day Weather Forecast

Advertisements
Track Severe Weather on mobile